EGHHEGTE

Guest
Details From EGHH - Bournemouth
To EGTE - Exeter
Flight Number -
Tags Routegen Generated
Created
Modified
Stats Distance 59 nm / 109 km
Max Altitude 100 ft / 30 m
Waypoints 7
Social Downloads 4
Likes 0
Share

Download

Looking for another format? Having issues loading an existing format? Contact us
Advertisement - Login to hide

Notes

Departing runway 25 EGHH. Arriving runway 7 EGTE.

Route

EGHH +50.76_-001.97 +50.76_-002.06 +50.76_-002.63 +50.75_-003.20 +50.75_-003.29 EGTE

ID Type Via Altitude (ft/m) Position (lat/lon) Dist (leg/tot) Name
O EGHH APT - 0 / 0 50.77751 / -1.85792 - / 0 nm
+50.76_-001.97 LATLON - 100 / 30 50.75908 / -1.96857 4 / 4 nm
+50.76_-002.06 LATLON - 100 / 30 50.76438 / -2.05971 3 / 7 nm
+50.76_-002.63 LATLON - 100 / 30 50.75603 / -2.62860 21 / 29 nm
+50.75_-003.20 LATLON - 100 / 30 50.74768 / -3.19749 21 / 51 nm
+50.75_-003.29 LATLON - 100 / 30 50.75387 / -3.28847 3 / 54 nm
O EGTE APT - 0 / 0 50.73653 / -3.39950 4 / 58 nm

Altitude Profile

Advertisement - Login to hide

EGHH

Details ICAO EGHH (BOH)
Name Bournemouth
Region United Kingdom
Timezone Europe/London (UTC+1.0)
Stats Elevation 38 ft / 12 m (AMSL)
Location 50.780100° -1.842480°
Runways 1
Magnetic Variation 0.397° W

METAR

EGHH 261420Z 25014KT 9999 FEW013 BKN024 16/13 Q1019

Decode

TAF

Not found

Departure Runways

ID Width Length Bearing (true/mag) Surface Threshold Overrun Markings Lighting
08 150 ft / 46 m 7,443 ft / 2,269 m 75.26° / 75.66° ASPHALT 1,411 ft / 430 m 0 ft / 0 m PREC-APP EDGE THRESHOLD ALSF-I REIL-OMNI
26 150 ft / 46 m 7,443 ft / 2,269 m 255.28° / 255.68° ASPHALT 0 ft / 0 m 167 ft / 51 m PREC-APP EDGE THRESHOLD CALVERT TDZ REIL-OMNI

EGTE

Details ICAO EGTE (EXT)
Name Exeter
Region United Kingdom
Timezone Europe/London (UTC+1.0)
Stats Elevation 102 ft / 31 m (AMSL)
Location 50.734300° -3.413770°
Runways 1
Magnetic Variation 0.939° W

METAR

EGTE 261420Z 23007KT 9999 VCSH SCT015 BKN022 16/13 Q1018

Decode

TAF

Not found

Destination Runways

ID Width Length Bearing (true/mag) Surface Threshold Overrun Markings Lighting
08 148 ft / 45 m 6,839 ft / 2,085 m 76.13° / 77.07° ASPHALT 0 ft / 0 m 0 ft / 0 m UK-PREC-APP EDGE THRESHOLD MALS REIL-OMNI
26 148 ft / 45 m 6,839 ft / 2,085 m 256.15° / 257.09° ASPHALT 0 ft / 0 m 0 ft / 0 m UK-PREC-APP EDGE THRESHOLD CALVERT REIL-OMNI

Approach Navaids

Runway Type Ident Frequency Range Bearing (true/mag) Slope Elevation
08 GS IET 109.90 MHz 10 nm / 19 km 76.14° / 77.08 ° 3.00° 102 ft / 31 m (AMSL)
08 DME IET 109.90 MHz 18 nm / 33 km - - 102 ft / 31 m (AMSL)
08 LOC-ILS IET 109.90 MHz 18 nm / 33 km 76.14° / 77.08 ° - 102 ft / 31 m (AMSL)
26 LOC-ILS IXR 109.90 MHz 18 nm / 33 km 256.14° / 257.08 ° - 102 ft / 31 m (AMSL)
26 DME IXR 109.90 MHz 18 nm / 33 km - - 102 ft / 31 m (AMSL)
26 GS IXR 109.90 MHz 10 nm / 19 km 256.14° / 257.08 ° 3.50° 102 ft / 31 m (AMSL)
26 MM MM - - 256.10° / 257.04 ° - 102 ft / 31 m (AMSL)

Popular Alternatives